Terminal Aerodrome Forecast
Issued by NWS

Home | Current Version | Previous Version | Text Only | Print | Product List | Glossary On
Versions: 1 2 3 4 5 6 7 8 9 10 11 12 13 14 15 16 17 18 19 20 21
000
FTUS46 KLOX 102300 RRA
TAFBUR
TAF
KBUR 102347Z 1100/1124 18009KT P6SM FEW020
     FM110500 14005KT P6SM SKC
     FM110900 VRB03KT 6SM BR OVC013
     FM111700 15005KT P6SM SCT018
     FM112000 18010KT P6SM SKC=

USA.gov is the U.S. government's official web portal to all federal, state and local government web resources and services.